createdAt,value
2022-08-01T00:11:03.202Z,23.99
2022-08-01T00:26:05.222Z,23.96
2022-08-01T00:41:07.079Z,23.91
2022-08-01T00:56:09.240Z,23.79
2022-08-01T01:11:45.345Z,23.70
2022-08-01T01:26:54.049Z,23.61
2022-08-01T01:41:58.088Z,23.44
2022-08-01T01:57:01.830Z,23.26
2022-08-01T02:12:07.886Z,23.19
2022-08-01T02:27:14.367Z,23.10
2022-08-01T02:42:19.548Z,22.97
2022-08-01T02:57:22.664Z,23.04
2022-08-01T03:12:30.848Z,22.86
2022-08-01T03:27:35.986Z,22.72
2022-08-01T03:42:46.848Z,22.12
2022-08-01T03:57:49.582Z,21.25
2022-08-01T04:12:52.196Z,20.27
2022-08-01T04:27:54.925Z,20.17
2022-08-01T04:42:56.886Z,20.28
2022-08-01T04:57:58.749Z,20.46
2022-08-01T05:13:02.106Z,20.68
2022-08-01T05:28:04.409Z,20.77
2022-08-01T05:43:06.486Z,20.73
2022-08-01T05:58:08.328Z,20.56
2022-08-01T06:13:14.462Z,20.42
2022-08-01T06:28:16.752Z,20.17
2022-08-01T06:43:19.879Z,20.04
2022-08-01T06:58:21.784Z,20.01
2022-08-01T07:13:44.090Z,19.98
2022-08-01T07:28:47.936Z,20.38
2022-08-01T07:43:56.474Z,21.38
2022-08-01T07:59:00.789Z,21.98
2022-08-01T08:14:02.724Z,21.91
2022-08-01T08:29:05.098Z,22.35
2022-08-01T08:44:10.286Z,22.33
2022-08-01T08:59:15.051Z,22.48
2022-08-01T09:14:24.406Z,23.57
2022-08-01T09:29:37.204Z,23.78
2022-08-01T09:44:54.696Z,23.86
2022-08-01T10:00:01.658Z,23.99
2022-08-01T10:15:04.565Z,24.98
2022-08-01T10:30:20.037Z,24.24
2022-08-01T10:45:30.570Z,22.07
2022-08-01T11:00:32.912Z,19.90
2022-08-01T11:15:36.875Z,19.58
2022-08-01T11:30:56.007Z,19.89
2022-08-01T11:45:58.041Z,20.59
2022-08-01T12:01:00.697Z,20.89
2022-08-01T12:16:09.143Z,20.96
2022-08-01T12:31:12.792Z,21.03
2022-08-01T12:46:18.551Z,20.64
2022-08-01T13:01:27.237Z,20.31
2022-08-01T13:16:55.456Z,19.94
2022-08-01T13:31:51.582Z,19.84
2022-08-01T13:46:53.532Z,19.65
2022-08-01T14:01:56.989Z,19.64
2022-08-01T14:17:00.689Z,19.75
2022-08-01T14:32:02.780Z,19.75
2022-08-01T14:47:16.173Z,19.72
2022-08-01T15:02:24.529Z,19.78
2022-08-01T15:17:31.993Z,19.82
2022-08-01T15:32:34.076Z,20.12
2022-08-01T15:47:36.106Z,20.08
2022-08-01T16:02:38.945Z,20.04
2022-08-01T16:17:42.142Z,19.88
2022-08-01T16:32:48.126Z,19.92
2022-08-01T16:47:54.872Z,20.02
2022-08-01T17:02:56.893Z,20.07
2022-08-01T17:17:58.825Z,19.94
2022-08-01T17:33:00.981Z,19.29
2022-08-01T17:48:03.000Z,19.02
2022-08-01T18:03:08.327Z,18.96
2022-08-01T18:18:14.106Z,19.05
2022-08-01T18:33:16.224Z,19.01
2022-08-01T18:48:18.384Z,19.05
2022-08-01T19:03:20.786Z,19.10
2022-08-01T19:18:23.420Z,19.09
2022-08-01T19:33:27.102Z,19.17
2022-08-01T19:48:29.194Z,19.24
2022-08-01T20:03:34.552Z,19.36
2022-08-01T20:18:36.636Z,19.46
2022-08-01T20:33:44.465Z,19.68
2022-08-01T20:48:48.666Z,19.04
2022-08-01T21:04:18.222Z,18.67
2022-08-01T21:19:28.027Z,18.62
2022-08-01T21:34:30.726Z,18.56
2022-08-01T22:06:01.541Z,18.58
2022-08-01T22:21:03.937Z,18.64
2022-08-01T22:36:07.447Z,18.67
2022-08-01T22:51:26.984Z,18.62
2022-08-01T23:06:43.280Z,18.68
2022-08-01T23:21:45.534Z,18.61
2022-08-01T23:36:47.621Z,18.44
2022-08-01T23:51:49.682Z,18.44
